Mont Saint Michel — FNMT — position and weather

sailwx.info

Track history (hours):
 
Tides and Currents Weather Stations Pressure Air Temp Water Temp Dewpoint Dewpoint Depression Visibility Wind Speed Wind Dir Waves Ship Positions

Mont Saint Michel

Last reported at 2017-Jun-24 13:30 UTC. Time now 2017-Jun-24 14:00 UTC.
Position N 50°49' W 001°06'.

Length 173 m; beam 29 m.

Type: Ship. MMSI: 227023100.

Date/timePositionNaut miles runAvg speedWind from/ knotsBaromVisibWave heightAir tempDewpointWater temp
2017-Jun-24 13:30N 50°49' W 001°06'0 0.0
2017-Jun-24 13:00N 50°49' W 001°06'0 0.0
2017-Jun-24 12:30N 50°49' W 001°06'0 0.1
2017-Jun-24 12:00N 50°49' W 001°06'4 8.4
2017-Jun-24 11:30N 50°45' W 001°05'918.6
2017-Jun-24 11:00N 50°36' W 000°58'918.7
2017-Jun-24 10:30N 50°28' W 000°51'1119.7
2017-Jun-24 09:57N 50°17' W 000°45'919.9
2017-Jun-24 09:30N 50°09' W 000°41'1019.7
2017-Jun-24 09:00N 49°60' W 000°36'1019.7
2017-Jun-24 08:30N 49°51' W 000°31'1020.0
2017-Jun-24 08:00N 49°41' W 000°26'1020.0
2017-Jun-24 07:30N 49°32' W 000°21'1019.4
2017-Jun-24 07:00N 49°23' W 000°16'510.7
2017-Jun-24 06:30N 49°17' W 000°15'0 0.0
2017-Jun-24 06:00N 49°17' W 000°15'0 0.0
2017-Jun-24 05:30N 49°17' W 000°15'0 0.0
2017-Jun-24 05:00N 49°17' W 000°15'0 0.2
2017-Jun-24 04:30N 49°17' W 000°15'713.5
2017-Jun-24 04:00N 49°24' W 000°15'1019.0
2017-Jun-24 03:30N 49°33' W 000°22'917.2
2017-Jun-24 03:00N 49°40' W 000°27'714.8
2017-Jun-24 02:30N 49°47' W 000°32'714.6
2017-Jun-24 02:00N 49°54' W 000°36'714.6
2017-Jun-24 01:30N 50°01' W 000°40'814.8
2017-Jun-24 00:59N 50°08' W 000°44'1215.1
2017-Jun-24 00:10N 50°20' W 000°49'415.8
2017-Jun-23 23:57N 50°23' W 000°51'715.6
2017-Jun-23 23:30N 50°30' W 000°54'815.5
2017-Jun-23 23:01N 50°37' W 000°58'815.0
2017-Jun-23 22:30N 50°44' W 001°04'510.3
2017-Jun-23 22:00N 50°49' W 001°06'0 0.1
2017-Jun-23 21:30N 50°49' W 001°06'0 0.0
2017-Jun-23 21:00N 50°49' W 001°06'0 0.0
2017-Jun-23 20:30N 50°49' W 001°06'0 0.3
2017-Jun-23 20:00N 50°49' W 001°06'611.9
2017-Jun-23 19:30N 50°43' W 001°02'917.5
2017-Jun-23 19:01N 50°35' W 000°57'1019.1
2017-Jun-23 18:30N 50°26' W 000°52'1019.7
2017-Jun-23 18:00N 50°17' W 000°47'1019.6
2017-Jun-23 17:30N 50°07' W 000°43'1020.2
2017-Jun-23 17:00N 49°58' W 000°38'918.6
2017-Jun-23 16:30N 49°49' W 000°33'918.7
2017-Jun-23 16:00N 49°40' W 000°28'1019.1
2017-Jun-23 15:30N 49°32' W 000°22'1019.2
2017-Jun-23 15:00N 49°23' W 000°16'6 5.7
2017-Jun-23 14:00N 49°17' W 000°15'0 0.0
2017-Jun-23 13:30N 49°17' W 000°15'0 0.0
2017-Jun-23 13:00N 49°17' W 000°15'3 5.1
2017-Jun-23 12:30N 49°20' W 000°14'1019.5
2017-Jun-23 12:00N 49°29' W 000°20'1019.9
2017-Jun-23 11:30N 49°39' W 000°24'918.9
2017-Jun-23 11:00N 49°48' W 000°29'918.8
2017-Jun-23 10:30N 49°56' W 000°34'1019.3
2017-Jun-23 10:00N 50°05' W 000°39'1919.3
2017-Jun-23 09:01N 50°23' W 000°49'119.4
2017-Jun-23 09:00N 50°24' W 000°50'1019.8
2017-Jun-23 08:30N 50°33' W 000°55'1019.7
2017-Jun-23 08:00N 50°42' W 001°00'714.9
2017-Jun-23 07:30N 50°48' W 001°07'1 1.6
2017-Jun-23 07:00N 50°49' W 001°06'0 0.0
2017-Jun-23 06:31N 50°49' W 001°06'0 0.0
2017-Jun-23 06:01N 50°49' W 001°06'0 0.5
2017-Jun-23 05:30N 50°49' W 001°06'612.0
2017-Jun-23 05:00N 50°43' W 001°02'917.1
2017-Jun-23 04:30N 50°35' W 000°57'611.6
2017-Jun-23 04:00N 50°30' W 000°54'611.1
2017-Jun-23 03:30N 50°25' W 000°51'611.5
2017-Jun-23 02:57N 50°19' W 000°47'512.0
2017-Jun-23 02:30N 50°14' W 000°44'611.6
2017-Jun-23 02:00N 50°08' W 000°41'611.9
2017-Jun-23 01:30N 50°03' W 000°37'612.3
2017-Jun-23 01:00N 49°57' W 000°33'612.3
2017-Jun-23 00:30N 49°52' W 000°29'612.2
2017-Jun-23 00:00N 49°46' W 000°26'612.2
2017-Jun-22 23:30N 49°40' W 000°23'611.9
2017-Jun-22 23:00N 49°35' W 000°20'611.2
2017-Jun-22 22:30N 49°29' W 000°18'611.1
2017-Jun-22 22:00N 49°24' W 000°16'611.0
2017-Jun-22 21:30N 49°18' W 000°15'1 2.0
2017-Jun-22 21:01N 49°17' W 000°15'0 0.0
2017-Jun-22 20:31N 49°17' W 000°15'0 0.0
2017-Jun-22 20:01N 49°17' W 000°15'1 1.4
2017-Jun-22 19:30N 49°18' W 000°15'1020.1
2017-Jun-22 19:00N 49°28' W 000°16'1020.9
2017-Jun-22 18:30N 49°38' W 000°21'1121.6
2017-Jun-22 18:00N 49°48' W 000°27'1121.6
2017-Jun-22 17:31N 49°58' W 000°33'1221.5
2017-Jun-22 16:57N 50°09' W 000°40'921.2
2017-Jun-22 16:30N 50°18' W 000°46'1020.8
2017-Jun-22 16:00N 50°28' W 000°51'1020.7
2017-Jun-22 15:30N 50°37' W 000°57'917.7
2017-Jun-22 15:00N 50°45' W 001°05'4 7.9
2017-Jun-22 14:30N 50°49' W 001°06'0 0.0
2017-Jun-22 13:30N 50°49' W 001°06'0 0.0
2017-Jun-22 13:00N 50°49' W 001°06'0 0.0
2017-Jun-22 12:30N 50°49' W 001°06'0 1.0
2017-Jun-22 12:00N 50°49' W 001°07'714.1
2017-Jun-22 11:30N 50°42' W 001°01'1020.0
2017-Jun-22 11:00N 50°33' W 000°55'1020.8
2017-Jun-22 10:30N 50°24' W 000°48'1121.1
2017-Jun-22 10:00N 50°14' W 000°43'1020.9
2017-Jun-22 09:30N 50°04' W 000°38'1020.6
2017-Jun-22 09:00N 49°54' W 000°33'1020.5
2017-Jun-22 08:30N 49°44' W 000°29'917.8
2017-Jun-22 08:00N 49°36' W 000°25'816.7
2017-Jun-22 07:30N 49°28' W 000°20'917.2
2017-Jun-22 07:00N 49°20' W 000°14'3 5.5
2017-Jun-22 06:30N 49°17' W 000°15'0 0.0
2017-Jun-22 06:00N 49°17' W 000°15'0 0.0
2017-Jun-22 05:30N 49°17' W 000°15'0 0.0
2017-Jun-22 05:00N 49°17' W 000°15'0 0.3
2017-Jun-22 04:30N 49°17' W 000°15'816.4
2017-Jun-22 04:00N 49°25' W 000°17'918.0
2017-Jun-22 03:30N 49°32' W 000°26'713.0
2017-Jun-22 03:01N 49°39' W 000°25'612.3
2017-Jun-22 02:30N 49°45' W 000°28'611.2
2017-Jun-22 02:00N 49°50' W 000°31'510.9
2017-Jun-22 01:30N 49°55' W 000°34'510.6
2017-Jun-22 01:00N 50°00' W 000°37'510.9
2017-Jun-22 00:30N 50°05' W 000°40'612.0
2017-Jun-22 00:00N 50°11' W 000°42'816.0
2017-Jun-21 23:30N 50°18' W 000°47'916.8
2017-Jun-21 23:00N 50°26' W 000°52'816.2
2017-Jun-21 22:30N 50°34' W 000°56'816.2
2017-Jun-21 22:00N 50°41' W 001°00'612.4
2017-Jun-21 21:30N 50°47' W 001°06'2 4.2
2017-Jun-21 21:00N 50°49' W 001°06'0 0.0
2017-Jun-21 20:30N 50°49' W 001°06'0 0.0
2017-Jun-21 20:00N 50°49' W 001°06'0 0.0
2017-Jun-21 19:30N 50°49' W 001°06'0 0.0
2017-Jun-21 19:00N 50°49' W 001°06'0 0.0
2017-Jun-21 18:31N 50°49' W 001°06'0 0.0
2017-Jun-21 18:00N 50°49' W 001°06'4 7.1
2017-Jun-21 17:31N 50°45' W 001°05'816.9
2017-Jun-21 17:01N 50°37' W 000°60'1019.4
2017-Jun-21 16:31N 50°28' W 000°55'1020.1
2017-Jun-21 16:01N 50°19' W 000°50'918.6
2017-Jun-21 15:31N 50°10' W 000°48'816.4
2017-Jun-21 15:01N 50°02' W 000°43'816.9
2017-Jun-21 14:30N 49°54' W 000°39'1717.0
2017-Jun-21 13:31N 49°38' W 000°29'918.5
2017-Jun-21 13:01N 49°30' W 000°22'918.9
2017-Jun-21 12:31N 49°22' W 000°15'4 8.0
2017-Jun-21 11:58N 49°17' W 000°15'0 0.0
2017-Jun-21 11:28N 49°17' W 000°15'0 0.0
2017-Jun-21 10:58N 49°17' W 000°15'0 0.0
2017-Jun-21 10:28N 49°17' W 000°15'0 0.0
2017-Jun-21 09:58N 49°17' W 000°15'0 0.0
2017-Jun-21 09:28N 49°17' W 000°15'0 0.0
2017-Jun-21 08:58N 49°17' W 000°15'0 0.0
2017-Jun-21 08:28N 49°17' W 000°15'0 0.0
2017-Jun-21 07:58N 49°17' W 000°15'0 0.0
2017-Jun-21 07:28N 49°17' W 000°15'0 0.0
2017-Jun-21 06:58N 49°17' W 000°15'0 0.0
2017-Jun-21 06:28N 49°17' W 000°15'0 0.0
2017-Jun-21 06:00N 49°17' W 000°15'0 0.0
2017-Jun-21 05:30N 49°17' W 000°15'3 6.4
2017-Jun-21 05:01N 49°21' W 000°14'1020.1
2017-Jun-21 04:31N 49°30' W 000°17'713.4
2017-Jun-21 04:00N 49°37' W 000°21'612.7
2017-Jun-21 03:30N 49°43' W 000°25'612.7
2017-Jun-21 03:00N 49°48' W 000°29'712.5
2017-Jun-21 02:28N 49°54' W 000°33'612.2
2017-Jun-21 02:00N 49°60' W 000°37'612.0
2017-Jun-21 01:30N 50°05' W 000°40'611.9
2017-Jun-21 01:00N 50°11' W 000°43'611.8
2017-Jun-21 00:30N 50°16' W 000°46'714.3
2017-Jun-21 00:00N 50°23' W 000°49'817.0
2017-Jun-20 23:31N 50°31' W 000°53'817.0
2017-Jun-20 23:01N 50°39' W 000°58'714.4
2017-Jun-20 22:30N 50°45' W 001°05'4 7.7
2017-Jun-20 22:00N 50°49' W 001°06'0 0.0
2017-Jun-20 21:30N 50°49' W 001°06'0 0.0
2017-Jun-20 21:00N 50°49' W 001°06'0 0.0
2017-Jun-20 20:30N 50°49' W 001°06'0 0.7
2017-Jun-20 20:00N 50°49' W 001°06'714.0
2017-Jun-20 19:30N 50°42' W 001°02'1020.1
2017-Jun-20 19:01N 50°34' W 000°52'1020.4
2017-Jun-20 18:30N 50°25' W 000°47'1020.6
2017-Jun-20 18:00N 50°15' W 000°42'1020.2
2017-Jun-20 17:30N 50°05' W 000°37'1020.1
2017-Jun-20 17:00N 49°56' W 000°32'1020.0
2017-Jun-20 16:30N 49°46' W 000°27'1020.2
2017-Jun-20 16:00N 49°37' W 000°22'1020.0
2017-Jun-20 15:30N 49°27' W 000°18'918.3
2017-Jun-20 15:01N 49°18' W 000°15'1 0.8
2017-Jun-20 14:01N 49°17' W 000°15'0 0.0
2017-Jun-20 13:30N 49°17' W 000°15'0 0.0
2017-Jun-20 13:00N 49°17' W 000°15'3 5.3
2017-Jun-20 12:30N 49°20' W 000°14'817.0
2017-Jun-20 12:01N 49°28' W 000°18'1020.0
2017-Jun-20 11:31N 49°38' W 000°22'1019.9
2017-Jun-20 11:01N 49°47' W 000°27'1020.2
2017-Jun-20 10:31N 49°57' W 000°32'1019.8
2017-Jun-20 10:01N 50°06' W 000°37'1020.0
2017-Jun-20 09:30N 50°16' W 000°42'1020.4
2017-Jun-20 09:01N 50°25' W 000°49'1020.0
2017-Jun-20 08:31N 50°34' W 000°55'1019.3
2017-Jun-20 08:00N 50°43' W 001°02'613.0
2017-Jun-20 07:30N 50°48' W 001°07'1 1.6
2017-Jun-20 07:00N 50°49' W 001°06'0 0.0
2017-Jun-20 06:31N 50°49' W 001°06'0 0.0
2017-Jun-20 06:00N 50°49' W 001°06'0 0.2
2017-Jun-20 05:31N 50°49' W 001°06'4 8.3
2017-Jun-20 05:01N 50°45' W 001°05'815.8
2017-Jun-20 04:30N 50°38' W 000°59'815.6
2017-Jun-20 04:00N 50°30' W 000°55'611.5
2017-Jun-20 03:30N 50°25' W 000°52'611.4
2017-Jun-20 03:00N 50°19' W 000°50'611.4
2017-Jun-20 02:30N 50°14' W 000°47'611.3
2017-Jun-20 02:00N 50°09' W 000°44'611.7
2017-Jun-20 01:30N 50°03' W 000°41'612.3
2017-Jun-20 01:00N 49°57' W 000°37'612.2
2017-Jun-20 00:30N 49°52' W 000°34'612.5
2017-Jun-20 00:00N 49°46' W 000°30'612.4
2017-Jun-19 23:30N 49°40' W 000°26'612.3
2017-Jun-19 23:00N 49°35' W 000°22'611.8
2017-Jun-19 22:30N 49°29' W 000°19'713.0
2017-Jun-19 22:00N 49°23' W 000°15'510.8
2017-Jun-19 21:30N 49°18' W 000°15'1 1.1
2017-Jun-19 21:00N 49°17' W 000°15'0 0.0
2017-Jun-19 20:30N 49°17' W 000°15'0 0.0
2017-Jun-19 20:00N 49°17' W 000°15'0 0.0
2017-Jun-19 19:30N 49°17' W 000°15'2 4.0
2017-Jun-19 19:00N 49°19' W 000°15'816.0
2017-Jun-19 18:30N 49°27' W 000°17'918.7
2017-Jun-19 18:00N 49°36' W 000°23'1019.2
2017-Jun-19 17:30N 49°44' W 000°29'1019.3
2017-Jun-19 17:00N 49°54' W 000°34'1019.5
2017-Jun-19 16:30N 50°03' W 000°39'1019.3
2017-Jun-19 16:00N 50°12' W 000°44'1019.3
2017-Jun-19 15:28N 50°22' W 000°50'1021.0
2017-Jun-19 15:00N 50°30' W 000°57'1019.5
2017-Jun-19 14:30N 50°40' W 000°58'1010.2
2017-Jun-19 13:30N 50°49' W 001°06'0 0.0
2017-Jun-19 13:00N 50°49' W 001°06'0 0.0
2017-Jun-19 12:30N 50°49' W 001°06'0 0.6
2017-Jun-19 12:01N 50°49' W 001°06'612.2
2017-Jun-19 11:30N 50°43' W 001°02'917.6
2017-Jun-19 11:00N 50°35' W 000°56'1019.5
2017-Jun-19 10:30N 50°26' W 000°51'1019.4
2017-Jun-19 10:00N 50°17' W 000°45'1019.8
2017-Jun-19 09:30N 50°08' W 000°40'1019.9
2017-Jun-19 09:00N 49°59' W 000°34'1020.7
2017-Jun-19 08:31N 49°49' W 000°28'1021.0
2017-Jun-19 08:00N 49°39' W 000°22'1020.5
2017-Jun-19 07:30N 49°29' W 000°18'1019.9
2017-Jun-19 07:01N 49°20' W 000°14'2 4.8
2017-Jun-19 06:31N 49°17' W 000°15'0 0.0
2017-Jun-19 06:00N 49°17' W 000°15'0 0.0
2017-Jun-19 05:31N 49°17' W 000°15'0 0.0
2017-Jun-19 05:00N 49°17' W 000°15'0 0.1
2017-Jun-19 04:30N 49°17' W 000°15'5 9.6
2017-Jun-19 04:00N 49°22' W 000°16'612.6
2017-Jun-19 03:30N 49°28' W 000°20'713.1
2017-Jun-19 03:00N 49°34' W 000°22'917.3
2017-Jun-19 02:30N 49°42' W 000°26'917.3
2017-Jun-19 02:00N 49°51' W 000°30'816.4
2017-Jun-19 01:30N 49°58' W 000°34'815.6
2017-Jun-19 01:00N 50°06' W 000°39'815.9
2017-Jun-19 00:30N 50°13' W 000°44'815.8
2017-Jun-19 00:00N 50°20' W 000°48'815.7
2017-Jun-18 23:30N 50°28' W 000°52'815.7
2017-Jun-18 23:00N 50°35' W 000°56'815.1
2017-Jun-18 22:30N 50°42' W 000°59'612.9
2017-Jun-18 22:00N 50°47' W 001°06'2 3.6
2017-Jun-18 21:30N 50°49' W 001°06'0 0.0
2017-Jun-18 21:00N 50°49' W 001°06'0 0.0
2017-Jun-18 20:30N 50°49' W 001°06'1 1.9
2017-Jun-18 20:00N 50°48' W 001°07'612.4
2017-Jun-18 19:31N 50°43' W 001°02'917.1
2017-Jun-18 19:00N 50°35' W 000°56'1020.7
2017-Jun-18 18:30N 50°25' W 000°49'1020.5
2017-Jun-18 18:00N 50°16' W 000°43'1020.6
2017-Jun-18 17:30N 50°06' W 000°38'1020.4
2017-Jun-18 17:00N 49°57' W 000°33'1020.1
2017-Jun-18 16:30N 49°47' W 000°29'1020.1
2017-Jun-18 16:00N 49°37' W 000°24'1019.9
2017-Jun-18 15:30N 49°28' W 000°19'917.0
2017-Jun-18 15:01N 49°20' W 000°14'3 2.7
2017-Jun-18 14:00N 49°17' W 000°15'0 0.0
2017-Jun-18 13:30N 49°17' W 000°15'0 0.0
2017-Jun-18 13:00N 49°17' W 000°15'2 4.8
2017-Jun-18 12:31N 49°20' W 000°14'816.3
2017-Jun-18 12:00N 49°28' W 000°18'918.8
2017-Jun-18 11:30N 49°37' W 000°22'918.6
2017-Jun-18 11:00N 49°45' W 000°26'918.6
2017-Jun-18 10:30N 49°54' W 000°31'1019.0
2017-Jun-18 10:00N 50°03' W 000°35'1019.7
2017-Jun-18 09:30N 50°13' W 000°41'1020.7
2017-Jun-18 09:00N 50°22' W 000°47'1020.8
2017-Jun-18 08:30N 50°32' W 000°52'1020.1
2017-Jun-18 08:01N 50°41' W 000°60'816.2
2017-Jun-18 07:30N 50°48' W 001°07'1 2.6
2017-Jun-18 07:00N 50°49' W 001°06'0 0.0
2017-Jun-18 06:30N 50°49' W 001°06'0 0.0
2017-Jun-18 06:00N 50°49' W 001°06'0 0.2
2017-Jun-18 05:30N 50°49' W 001°06'4 7.1
2017-Jun-18 05:00N 50°45' W 001°05'917.2
2017-Jun-18 04:30N 50°38' W 000°58'611.5
2017-Jun-18 04:00N 50°32' W 000°55'611.5
2017-Jun-18 03:30N 50°27' W 000°51'611.2
2017-Jun-18 03:00N 50°22' W 000°47'612.0
2017-Jun-18 02:30N 50°16' W 000°44'611.5
2017-Jun-18 02:00N 50°11' W 000°41'611.6
2017-Jun-18 01:30N 50°06' W 000°38'611.1
2017-Jun-18 01:00N 50°00' W 000°35'611.7
2017-Jun-18 00:30N 49°55' W 000°32'611.6
2017-Jun-18 00:00N 49°49' W 000°29'611.9
2017-Jun-17 23:30N 49°44' W 000°26'611.8
2017-Jun-17 23:00N 49°38' W 000°23'611.8
2017-Jun-17 22:30N 49°33' W 000°20'611.1
2017-Jun-17 22:00N 49°27' W 000°18'611.4
2017-Jun-17 21:30N 49°22' W 000°15'5 9.2
2017-Jun-17 21:01N 49°17' W 000°15'0 0.1
2017-Jun-17 20:30N 49°17' W 000°15'0 0.0
2017-Jun-17 20:00N 49°17' W 000°15'0 0.0
2017-Jun-17 19:30N 49°17' W 000°15'2 4.9
2017-Jun-17 19:01N 49°20' W 000°14'816.9
2017-Jun-17 18:31N 49°28' W 000°18'1019.2
2017-Jun-17 18:01N 49°37' W 000°23'918.7
2017-Jun-17 17:31N 49°46' W 000°27'918.9
2017-Jun-17 17:01N 49°55' W 000°31'1019.0
2017-Jun-17 16:30N 50°04' W 000°35'918.9
2017-Jun-17 16:01N 50°13' W 000°41'1019.3
2017-Jun-17 15:30N 50°21' W 000°48'1020.5
2017-Jun-17 15:01N 50°31' W 000°54'1817.9
2017-Jun-17 14:00N 50°47' W 001°06'2 3.5
2017-Jun-17 13:31N 50°49' W 001°06'0 0.0
2017-Jun-17 13:00N 50°49' W 001°06'0 0.0
2017-Jun-17 12:30N 50°49' W 001°06'1 1.5
2017-Jun-17 12:01N 50°48' W 001°07'510.2
2017-Jun-17 11:30N 50°44' W 001°03'917.4
2017-Jun-17 11:01N 50°36' W 000°57'1020.6
2017-Jun-17 10:31N 50°26' W 000°51'1020.8
2017-Jun-17 10:01N 50°17' W 000°46'1020.8
2017-Jun-17 09:31N 50°07' W 000°40'1121.1
2017-Jun-17 09:01N 49°57' W 000°35'1121.1
2017-Jun-17 08:31N 49°47' W 000°29'1121.1
2017-Jun-17 08:01N 49°37' W 000°23'1020.9
2017-Jun-17 07:31N 49°27' W 000°18'917.5
2017-Jun-17 07:00N 49°19' W 000°15'1 2.8
2017-Jun-17 06:30N 49°17' W 000°15'0 0.0
2017-Jun-17 06:00N 49°17' W 000°15'0 0.0
2017-Jun-17 05:30N 49°17' W 000°15'0 0.0
2017-Jun-17 05:00N 49°17' W 000°15'0 0.2
2017-Jun-17 04:30N 49°17' W 000°15'510.6
2017-Jun-17 04:00N 49°23' W 000°15'815.8
2017-Jun-17 03:30N 49°30' W 000°20'815.4
2017-Jun-17 03:00N 49°37' W 000°23'815.6
2017-Jun-17 02:30N 49°45' W 000°27'815.6
2017-Jun-17 02:00N 49°52' W 000°30'815.8
2017-Jun-17 01:30N 49°60' W 000°34'815.8
2017-Jun-17 01:00N 50°07' W 000°39'816.1
2017-Jun-17 00:31N 50°15' W 000°43'918.8
2017-Jun-17 00:00N 50°23' W 000°48'918.9
2017-Jun-16 23:30N 50°32' W 000°54'918.4
2017-Jun-16 23:00N 50°41' W 000°58'713.7
2017-Jun-16 22:30N 50°46' W 001°05'3 5.5
2017-Jun-16 22:00N 50°49' W 001°06'0 0.0
2017-Jun-16 21:30N 50°49' W 001°06'0 0.0
2017-Jun-16 21:00N 50°49' W 001°06'0 0.0
2017-Jun-16 20:30N 50°49' W 001°06'1 1.7
2017-Jun-16 20:00N 50°48' W 001°07'612.6
2017-Jun-16 19:31N 50°43' W 001°01'815.9
2017-Jun-16 19:01N 50°36' W 000°56'1019.5
2017-Jun-16 18:31N 50°27' W 000°51'1020.1
2017-Jun-16 18:00N 50°17' W 000°45'1021.0
2017-Jun-16 17:31N 50°08' W 000°38'1020.9
2017-Jun-16 17:00N 49°58' W 000°32'1020.9
2017-Jun-16 16:31N 49°48' W 000°26'1020.8
2017-Jun-16 16:01N 49°39' W 000°20'1020.1
2017-Jun-16 15:31N 49°29' W 000°16'1019.1
2017-Jun-16 15:00N 49°20' W 000°14'2 2.2
2017-Jun-16 14:00N 49°17' W 000°15'0 0.0
2017-Jun-16 13:30N 49°17' W 000°15'0 0.0
2017-Jun-16 13:00N 49°17' W 000°15'2 4.3
2017-Jun-16 12:30N 49°19' W 000°14'816.3
2017-Jun-16 12:00N 49°27' W 000°18'1019.1
2017-Jun-16 11:31N 49°36' W 000°24'1019.0
2017-Jun-16 11:00N 49°45' W 000°30'1019.1
2017-Jun-16 10:31N 49°54' W 000°36'1120.9
2017-Jun-16 09:59N 50°04' W 000°42'1020.6
2017-Jun-16 09:30N 50°13' W 000°47'1120.6
2017-Jun-16 08:59N 50°24' W 000°51'1020.4
2017-Jun-16 08:30N 50°33' W 000°55'1019.7
2017-Jun-16 08:00N 50°42' W 000°59'815.1
2017-Jun-16 07:30N 50°48' W 001°07'1 1.8
2017-Jun-16 07:00N 50°49' W 001°06'0 0.0
2017-Jun-16 06:30N 50°49' W 001°06'0 0.0
2017-Jun-16 06:01N 50°49' W 001°06'0 0.2
2017-Jun-16 05:30N 50°49' W 001°06'4 7.1
2017-Jun-16 05:00N 50°45' W 001°05'917.6
2017-Jun-16 04:30N 50°38' W 000°58'815.8
2017-Jun-16 04:00N 50°30' W 000°53'815.2
2017-Jun-16 03:29N 50°23' W 000°49'715.2
2017-Jun-16 03:00N 50°16' W 000°44'815.1
2017-Jun-16 02:30N 50°09' W 000°40'815.1
2017-Jun-16 02:00N 50°02' W 000°36'714.9
2017-Jun-16 01:30N 49°55' W 000°31'510.6
2017-Jun-16 01:00N 49°50' W 000°28'510.4
2017-Jun-16 00:30N 49°45' W 000°26'510.3
2017-Jun-16 00:00N 49°41' W 000°23'510.2
2017-Jun-15 23:30N 49°36' W 000°21'510.4
2017-Jun-15 23:00N 49°31' W 000°18'510.1
2017-Jun-15 22:30N 49°26' W 000°16'510.1
2017-Jun-15 22:00N 49°21' W 000°15'4 7.2
2017-Jun-15 21:30N 49°17' W 000°15'0 0.0
2017-Jun-15 21:00N 49°17' W 000°15'0 0.0
2017-Jun-15 20:30N 49°17' W 000°15'0 0.0
2017-Jun-15 20:00N 49°17' W 000°15'0 0.0
2017-Jun-15 19:30N 49°17' W 000°15'2 4.7
2017-Jun-15 19:00N 49°20' W 000°14'917.1
2017-Jun-15 18:30N 49°28' W 000°18'1020.0
2017-Jun-15 18:00N 49°37' W 000°23'1019.7
2017-Jun-15 17:31N 49°47' W 000°28'1019.7
2017-Jun-15 17:00N 49°56' W 000°33'1019.8
2017-Jun-15 16:31N 50°05' W 000°38'1019.9
2017-Jun-15 16:01N 50°15' W 000°44'1020.2
2017-Jun-15 15:30N 50°24' W 000°50'1020.1
2017-Jun-15 15:00N 50°33' W 000°56'1019.1
2017-Jun-15 14:31N 50°42' W 001°01'7 7.2
2017-Jun-15 13:31N 50°49' W 001°06'0 0.0
2017-Jun-15 13:00N 50°49' W 001°06'0 0.0
2017-Jun-15 12:31N 50°49' W 001°06'0 0.8
2017-Jun-15 12:00N 50°49' W 001°06'612.1
2017-Jun-15 11:31N 50°43' W 001°02'918.9
2017-Jun-15 11:01N 50°34' W 000°57'1019.8
2017-Jun-15 10:31N 50°25' W 000°53'1020.2
2017-Jun-15 10:00N 50°15' W 000°49'1019.8
2017-Jun-15 09:31N 50°06' W 000°42'1020.2
2017-Jun-15 09:01N 49°57' W 000°37'1020.6
2017-Jun-15 08:30N 49°47' W 000°32'1020.7
2017-Jun-15 08:00N 49°37' W 000°27'1020.6
2017-Jun-15 07:31N 49°28' W 000°19'918.4
2017-Jun-15 07:00N 49°19' W 000°15'2 3.7
2017-Jun-15 06:30N 49°17' W 000°15'0 0.0
2017-Jun-15 06:00N 49°17' W 000°15'0 0.0
2017-Jun-15 05:30N 49°17' W 000°15'0 0.0
2017-Jun-15 05:00N 49°17' W 000°15'0 0.0
2017-Jun-15 04:30N 49°17' W 000°15'3 6.4
2017-Jun-15 04:00N 49°21' W 000°14'611.6
2017-Jun-15 03:30N 49°26' W 000°17'611.9
2017-Jun-15 03:00N 49°32' W 000°19'611.6
2017-Jun-15 02:30N 49°37' W 000°22'612.4
2017-Jun-15 02:00N 49°43' W 000°25'815.6
2017-Jun-15 01:31N 49°51' W 000°28'815.6
2017-Jun-15 01:00N 49°58' W 000°32'815.7
2017-Jun-15 00:30N 50°05' W 000°37'815.7
2017-Jun-15 00:00N 50°13' W 000°41'815.9
2017-Jun-14 23:30N 50°20' W 000°46'815.8
2017-Jun-14 23:00N 50°27' W 000°51'816.0
2017-Jun-14 22:30N 50°35' W 000°55'715.1
2017-Jun-14 22:01N 50°42' W 000°58'714.4
2017-Jun-14 21:31N 50°47' W 001°06'2 3.1
2017-Jun-14 21:00N 50°49' W 001°06'0 0.0
2017-Jun-14 20:30N 50°49' W 001°06'0 0.0
2017-Jun-14 20:00N 50°49' W 001°06'0 0.0
2017-Jun-14 19:30N 50°49' W 001°06'0 0.0
2017-Jun-14 19:00N 50°49' W 001°06'0 0.0
2017-Jun-14 18:30N 50°49' W 001°06'0 0.2
2017-Jun-14 18:00N 50°49' W 001°06'4 8.7
2017-Jun-14 17:31N 50°44' W 001°04'917.5
2017-Jun-14 17:01N 50°37' W 000°57'816.9
2017-Jun-14 16:30N 50°29' W 000°52'816.5
2017-Jun-14 16:01N 50°21' W 000°48'816.8
2017-Jun-14 15:31N 50°13' W 000°43'917.3
2017-Jun-14 15:00N 50°05' W 000°38'1918.7
2017-Jun-14 14:01N 49°48' W 000°28'918.2
2017-Jun-14 13:31N 49°39' W 000°23'  
Track history (hours):
 
Tides and Currents Weather Stations Pressure Air Temp Water Temp Dewpoint Dewpoint Depression Visibility Wind Speed Wind Dir Waves Ship Positions

Mont Saint Michel

Last reported at 2017-Jun-24 13:30 UTC. Time now 2017-Jun-24 14:00 UTC.
Position N 50°49' W 001°06'.

Length 173 m; beam 29 m.

Type: Ship. MMSI: 227023100.

Date/timePositionNaut miles runAvg speedWind from/ knotsBaromVisibWave heightAir tempDewpointWater temp
2017-Jun-24 13:30N 50°49' W 001°06'0 0.0
2017-Jun-24 13:00N 50°49' W 001°06'0 0.0
2017-Jun-24 12:30N 50°49' W 001°06'0 0.1
2017-Jun-24 12:00N 50°49' W 001°06'4 8.4
2017-Jun-24 11:30N 50°45' W 001°05'918.6
2017-Jun-24 11:00N 50°36' W 000°58'918.7
2017-Jun-24 10:30N 50°28' W 000°51'1119.7
2017-Jun-24 09:57N 50°17' W 000°45'919.9
2017-Jun-24 09:30N 50°09' W 000°41'1019.7
2017-Jun-24 09:00N 49°60' W 000°36'1019.7
2017-Jun-24 08:30N 49°51' W 000°31'1020.0
2017-Jun-24 08:00N 49°41' W 000°26'1020.0
2017-Jun-24 07:30N 49°32' W 000°21'1019.4
2017-Jun-24 07:00N 49°23' W 000°16'510.7
2017-Jun-24 06:30N 49°17' W 000°15'0 0.0
2017-Jun-24 06:00N 49°17' W 000°15'0 0.0
2017-Jun-24 05:30N 49°17' W 000°15'0 0.0
2017-Jun-24 05:00N 49°17' W 000°15'0 0.2
2017-Jun-24 04:30N 49°17' W 000°15'713.5
2017-Jun-24 04:00N 49°24' W 000°15'1019.0
2017-Jun-24 03:30N 49°33' W 000°22'917.2
2017-Jun-24 03:00N 49°40' W 000°27'714.8
2017-Jun-24 02:30N 49°47' W 000°32'714.6
2017-Jun-24 02:00N 49°54' W 000°36'714.6
2017-Jun-24 01:30N 50°01' W 000°40'814.8
2017-Jun-24 00:59N 50°08' W 000°44'1215.1
2017-Jun-24 00:10N 50°20' W 000°49'415.8
2017-Jun-23 23:57N 50°23' W 000°51'715.6
2017-Jun-23 23:30N 50°30' W 000°54'815.5
2017-Jun-23 23:01N 50°37' W 000°58'815.0
2017-Jun-23 22:30N 50°44' W 001°04'510.3
2017-Jun-23 22:00N 50°49' W 001°06'0 0.1
2017-Jun-23 21:30N 50°49' W 001°06'0 0.0
2017-Jun-23 21:00N 50°49' W 001°06'0 0.0
2017-Jun-23 20:30N 50°49' W 001°06'0 0.3
2017-Jun-23 20:00N 50°49' W 001°06'611.9
2017-Jun-23 19:30N 50°43' W 001°02'917.5
2017-Jun-23 19:01N 50°35' W 000°57'1019.1
2017-Jun-23 18:30N 50°26' W 000°52'1019.7
2017-Jun-23 18:00N 50°17' W 000°47'1019.6
2017-Jun-23 17:30N 50°07' W 000°43'1020.2
2017-Jun-23 17:00N 49°58' W 000°38'918.6
2017-Jun-23 16:30N 49°49' W 000°33'918.7
2017-Jun-23 16:00N 49°40' W 000°28'1019.1
2017-Jun-23 15:30N 49°32' W 000°22'1019.2
2017-Jun-23 15:00N 49°23' W 000°16'6 5.7
2017-Jun-23 14:00N 49°17' W 000°15'0 0.0
2017-Jun-23 13:30N 49°17' W 000°15'0 0.0
2017-Jun-23 13:00N 49°17' W 000°15'3 5.1
2017-Jun-23 12:30N 49°20' W 000°14'1019.5
2017-Jun-23 12:00N 49°29' W 000°20'1019.9
2017-Jun-23 11:30N 49°39' W 000°24'918.9
2017-Jun-23 11:00N 49°48' W 000°29'918.8
2017-Jun-23 10:30N 49°56' W 000°34'1019.3
2017-Jun-23 10:00N 50°05' W 000°39'1919.3
2017-Jun-23 09:01N 50°23' W 000°49'119.4
2017-Jun-23 09:00N 50°24' W 000°50'1019.8
2017-Jun-23 08:30N 50°33' W 000°55'1019.7
2017-Jun-23 08:00N 50°42' W 001°00'714.9
2017-Jun-23 07:30N 50°48' W 001°07'1 1.6
2017-Jun-23 07:00N 50°49' W 001°06'0 0.0
2017-Jun-23 06:31N 50°49' W 001°06'0 0.0
2017-Jun-23 06:01N 50°49' W 001°06'0 0.5
2017-Jun-23 05:30N 50°49' W 001°06'612.0
2017-Jun-23 05:00N 50°43' W 001°02'917.1
2017-Jun-23 04:30N 50°35' W 000°57'611.6
2017-Jun-23 04:00N 50°30' W 000°54'611.1
2017-Jun-23 03:30N 50°25' W 000°51'611.5
2017-Jun-23 02:57N 50°19' W 000°47'512.0
2017-Jun-23 02:30N 50°14' W 000°44'611.6
2017-Jun-23 02:00N 50°08' W 000°41'611.9
2017-Jun-23 01:30N 50°03' W 000°37'612.3
2017-Jun-23 01:00N 49°57' W 000°33'612.3
2017-Jun-23 00:30N 49°52' W 000°29'612.2
2017-Jun-23 00:00N 49°46' W 000°26'612.2
2017-Jun-22 23:30N 49°40' W 000°23'611.9
2017-Jun-22 23:00N 49°35' W 000°20'611.2
2017-Jun-22 22:30N 49°29' W 000°18'611.1
2017-Jun-22 22:00N 49°24' W 000°16'611.0
2017-Jun-22 21:30N 49°18' W 000°15'1 2.0
2017-Jun-22 21:01N 49°17' W 000°15'0 0.0
2017-Jun-22 20:31N 49°17' W 000°15'0 0.0
2017-Jun-22 20:01N 49°17' W 000°15'1 1.4
2017-Jun-22 19:30N 49°18' W 000°15'1020.1
2017-Jun-22 19:00N 49°28' W 000°16'1020.9
2017-Jun-22 18:30N 49°38' W 000°21'1121.6
2017-Jun-22 18:00N 49°48' W 000°27'1121.6
2017-Jun-22 17:31N 49°58' W 000°33'1221.5
2017-Jun-22 16:57N 50°09' W 000°40'921.2
2017-Jun-22 16:30N 50°18' W 000°46'1020.8
2017-Jun-22 16:00N 50°28' W 000°51'1020.7
2017-Jun-22 15:30N 50°37' W 000°57'917.7
2017-Jun-22 15:00N 50°45' W 001°05'4 7.9
2017-Jun-22 14:30N 50°49' W 001°06'0 0.0
2017-Jun-22 13:30N 50°49' W 001°06'0 0.0
2017-Jun-22 13:00N 50°49' W 001°06'0 0.0
2017-Jun-22 12:30N 50°49' W 001°06'0 1.0
2017-Jun-22 12:00N 50°49' W 001°07'714.1
2017-Jun-22 11:30N 50°42' W 001°01'1020.0
2017-Jun-22 11:00N 50°33' W 000°55'1020.8
2017-Jun-22 10:30N 50°24' W 000°48'1121.1
2017-Jun-22 10:00N 50°14' W 000°43'1020.9
2017-Jun-22 09:30N 50°04' W 000°38'1020.6
2017-Jun-22 09:00N 49°54' W 000°33'1020.5
2017-Jun-22 08:30N 49°44' W 000°29'917.8
2017-Jun-22 08:00N 49°36' W 000°25'816.7
2017-Jun-22 07:30N 49°28' W 000°20'917.2
2017-Jun-22 07:00N 49°20' W 000°14'3 5.5
2017-Jun-22 06:30N 49°17' W 000°15'0 0.0
2017-Jun-22 06:00N 49°17' W 000°15'0 0.0
2017-Jun-22 05:30N 49°17' W 000°15'0 0.0
2017-Jun-22 05:00N 49°17' W 000°15'0 0.3
2017-Jun-22 04:30N 49°17' W 000°15'816.4
2017-Jun-22 04:00N 49°25' W 000°17'918.0
2017-Jun-22 03:30N 49°32' W 000°26'713.0
2017-Jun-22 03:01N 49°39' W 000°25'612.3
2017-Jun-22 02:30N 49°45' W 000°28'611.2
2017-Jun-22 02:00N 49°50' W 000°31'510.9
2017-Jun-22 01:30N 49°55' W 000°34'510.6
2017-Jun-22 01:00N 50°00' W 000°37'510.9
2017-Jun-22 00:30N 50°05' W 000°40'612.0
2017-Jun-22 00:00N 50°11' W 000°42'816.0
2017-Jun-21 23:30N 50°18' W 000°47'916.8
2017-Jun-21 23:00N 50°26' W 000°52'816.2
2017-Jun-21 22:30N 50°34' W 000°56'816.2
2017-Jun-21 22:00N 50°41' W 001°00'612.4
2017-Jun-21 21:30N 50°47' W 001°06'2 4.2
2017-Jun-21 21:00N 50°49' W 001°06'0 0.0
2017-Jun-21 20:30N 50°49' W 001°06'0 0.0
2017-Jun-21 20:00N 50°49' W 001°06'0 0.0
2017-Jun-21 19:30N 50°49' W 001°06'0 0.0
2017-Jun-21 19:00N 50°49' W 001°06'0 0.0
2017-Jun-21 18:31N 50°49' W 001°06'0 0.0
2017-Jun-21 18:00N 50°49' W 001°06'4 7.1
2017-Jun-21 17:31N 50°45' W 001°05'816.9
2017-Jun-21 17:01N 50°37' W 000°60'1019.4
2017-Jun-21 16:31N 50°28' W 000°55'1020.1
2017-Jun-21 16:01N 50°19' W 000°50'918.6
2017-Jun-21 15:31N 50°10' W 000°48'816.4
2017-Jun-21 15:01N 50°02' W 000°43'816.9
2017-Jun-21 14:30N 49°54' W 000°39'1717.0
2017-Jun-21 13:31N 49°38' W 000°29'918.5
2017-Jun-21 13:01N 49°30' W 000°22'918.9
2017-Jun-21 12:31N 49°22' W 000°15'4 8.0
2017-Jun-21 11:58N 49°17' W 000°15'0 0.0
2017-Jun-21 11:28N 49°17' W 000°15'0 0.0
2017-Jun-21 10:58N 49°17' W 000°15'0 0.0
2017-Jun-21 10:28N 49°17' W 000°15'0 0.0
2017-Jun-21 09:58N 49°17' W 000°15'0 0.0
2017-Jun-21 09:28N 49°17' W 000°15'0 0.0
2017-Jun-21 08:58N 49°17' W 000°15'0 0.0
2017-Jun-21 08:28N 49°17' W 000°15'0 0.0
2017-Jun-21 07:58N 49°17' W 000°15'0 0.0
2017-Jun-21 07:28N 49°17' W 000°15'0 0.0
2017-Jun-21 06:58N 49°17' W 000°15'0 0.0
2017-Jun-21 06:28N 49°17' W 000°15'0 0.0
2017-Jun-21 06:00N 49°17' W 000°15'0 0.0
2017-Jun-21 05:30N 49°17' W 000°15'3 6.4
2017-Jun-21 05:01N 49°21' W 000°14'1020.1
2017-Jun-21 04:31N 49°30' W 000°17'713.4
2017-Jun-21 04:00N 49°37' W 000°21'612.7
2017-Jun-21 03:30N 49°43' W 000°25'612.7
2017-Jun-21 03:00N 49°48' W 000°29'712.5
2017-Jun-21 02:28N 49°54' W 000°33'612.2
2017-Jun-21 02:00N 49°60' W 000°37'612.0
2017-Jun-21 01:30N 50°05' W 000°40'611.9
2017-Jun-21 01:00N 50°11' W 000°43'611.8
2017-Jun-21 00:30N 50°16' W 000°46'714.3
2017-Jun-21 00:00N 50°23' W 000°49'817.0
2017-Jun-20 23:31N 50°31' W 000°53'817.0
2017-Jun-20 23:01N 50°39' W 000°58'714.4
2017-Jun-20 22:30N 50°45' W 001°05'4 7.7
2017-Jun-20 22:00N 50°49' W 001°06'0 0.0
2017-Jun-20 21:30N 50°49' W 001°06'0 0.0
2017-Jun-20 21:00N 50°49' W 001°06'0 0.0
2017-Jun-20 20:30N 50°49' W 001°06'0 0.7
2017-Jun-20 20:00N 50°49' W 001°06'714.0
2017-Jun-20 19:30N 50°42' W 001°02'1020.1
2017-Jun-20 19:01N 50°34' W 000°52'1020.4
2017-Jun-20 18:30N 50°25' W 000°47'1020.6
2017-Jun-20 18:00N 50°15' W 000°42'1020.2
2017-Jun-20 17:30N 50°05' W 000°37'1020.1
2017-Jun-20 17:00N 49°56' W 000°32'1020.0
2017-Jun-20 16:30N 49°46' W 000°27'1020.2
2017-Jun-20 16:00N 49°37' W 000°22'1020.0
2017-Jun-20 15:30N 49°27' W 000°18'918.3
2017-Jun-20 15:01N 49°18' W 000°15'1 0.8
2017-Jun-20 14:01N 49°17' W 000°15'0 0.0
2017-Jun-20 13:30N 49°17' W 000°15'0 0.0
2017-Jun-20 13:00N 49°17' W 000°15'3 5.3
2017-Jun-20 12:30N 49°20' W 000°14'817.0
2017-Jun-20 12:01N 49°28' W 000°18'1020.0
2017-Jun-20 11:31N 49°38' W 000°22'1019.9
2017-Jun-20 11:01N 49°47' W 000°27'1020.2
2017-Jun-20 10:31N 49°57' W 000°32'1019.8
2017-Jun-20 10:01N 50°06' W 000°37'1020.0
2017-Jun-20 09:30N 50°16' W 000°42'1020.4
2017-Jun-20 09:01N 50°25' W 000°49'1020.0
2017-Jun-20 08:31N 50°34' W 000°55'1019.3
2017-Jun-20 08:00N 50°43' W 001°02'613.0
2017-Jun-20 07:30N 50°48' W 001°07'1 1.6
2017-Jun-20 07:00N 50°49' W 001°06'0 0.0
2017-Jun-20 06:31N 50°49' W 001°06'0 0.0
2017-Jun-20 06:00N 50°49' W 001°06'0 0.2
2017-Jun-20 05:31N 50°49' W 001°06'4 8.3
2017-Jun-20 05:01N 50°45' W 001°05'815.8
2017-Jun-20 04:30N 50°38' W 000°59'815.6
2017-Jun-20 04:00N 50°30' W 000°55'611.5
2017-Jun-20 03:30N 50°25' W 000°52'611.4
2017-Jun-20 03:00N 50°19' W 000°50'611.4
2017-Jun-20 02:30N 50°14' W 000°47'611.3
2017-Jun-20 02:00N 50°09' W 000°44'611.7
2017-Jun-20 01:30N 50°03' W 000°41'612.3
2017-Jun-20 01:00N 49°57' W 000°37'612.2
2017-Jun-20 00:30N 49°52' W 000°34'612.5
2017-Jun-20 00:00N 49°46' W 000°30'612.4
2017-Jun-19 23:30N 49°40' W 000°26'612.3
2017-Jun-19 23:00N 49°35' W 000°22'611.8
2017-Jun-19 22:30N 49°29' W 000°19'713.0
2017-Jun-19 22:00N 49°23' W 000°15'510.8
2017-Jun-19 21:30N 49°18' W 000°15'1 1.1
2017-Jun-19 21:00N 49°17' W 000°15'0 0.0
2017-Jun-19 20:30N 49°17' W 000°15'0 0.0
2017-Jun-19 20:00N 49°17' W 000°15'0 0.0
2017-Jun-19 19:30N 49°17' W 000°15'2 4.0
2017-Jun-19 19:00N 49°19' W 000°15'816.0
2017-Jun-19 18:30N 49°27' W 000°17'918.7
2017-Jun-19 18:00N 49°36' W 000°23'1019.2
2017-Jun-19 17:30N 49°44' W 000°29'1019.3
2017-Jun-19 17:00N 49°54' W 000°34'1019.5
2017-Jun-19 16:30N 50°03' W 000°39'1019.3
2017-Jun-19 16:00N 50°12' W 000°44'1019.3
2017-Jun-19 15:28N 50°22' W 000°50'1021.0
2017-Jun-19 15:00N 50°30' W 000°57'1019.5
2017-Jun-19 14:30N 50°40' W 000°58'1010.2
2017-Jun-19 13:30N 50°49' W 001°06'0 0.0
2017-Jun-19 13:00N 50°49' W 001°06'0 0.0
2017-Jun-19 12:30N 50°49' W 001°06'0 0.6
2017-Jun-19 12:01N 50°49' W 001°06'612.2
2017-Jun-19 11:30N 50°43' W 001°02'917.6
2017-Jun-19 11:00N 50°35' W 000°56'1019.5
2017-Jun-19 10:30N 50°26' W 000°51'1019.4
2017-Jun-19 10:00N 50°17' W 000°45'1019.8
2017-Jun-19 09:30N 50°08' W 000°40'1019.9
2017-Jun-19 09:00N 49°59' W 000°34'1020.7
2017-Jun-19 08:31N 49°49' W 000°28'1021.0
2017-Jun-19 08:00N 49°39' W 000°22'1020.5
2017-Jun-19 07:30N 49°29' W 000°18'1019.9
2017-Jun-19 07:01N 49°20' W 000°14'2 4.8
2017-Jun-19 06:31N 49°17' W 000°15'0 0.0
2017-Jun-19 06:00N 49°17' W 000°15'0 0.0
2017-Jun-19 05:31N 49°17' W 000°15'0 0.0
2017-Jun-19 05:00N 49°17' W 000°15'0 0.1
2017-Jun-19 04:30N 49°17' W 000°15'5 9.6
2017-Jun-19 04:00N 49°22' W 000°16'612.6
2017-Jun-19 03:30N 49°28' W 000°20'713.1
2017-Jun-19 03:00N 49°34' W 000°22'917.3
2017-Jun-19 02:30N 49°42' W 000°26'917.3
2017-Jun-19 02:00N 49°51' W 000°30'816.4
2017-Jun-19 01:30N 49°58' W 000°34'815.6
2017-Jun-19 01:00N 50°06' W 000°39'815.9
2017-Jun-19 00:30N 50°13' W 000°44'815.8
2017-Jun-19 00:00N 50°20' W 000°48'815.7
2017-Jun-18 23:30N 50°28' W 000°52'815.7
2017-Jun-18 23:00N 50°35' W 000°56'815.1
2017-Jun-18 22:30N 50°42' W 000°59'612.9
2017-Jun-18 22:00N 50°47' W 001°06'2 3.6
2017-Jun-18 21:30N 50°49' W 001°06'0 0.0
2017-Jun-18 21:00N 50°49' W 001°06'0 0.0
2017-Jun-18 20:30N 50°49' W 001°06'1 1.9
2017-Jun-18 20:00N 50°48' W 001°07'612.4
2017-Jun-18 19:31N 50°43' W 001°02'917.1
2017-Jun-18 19:00N 50°35' W 000°56'1020.7
2017-Jun-18 18:30N 50°25' W 000°49'1020.5
2017-Jun-18 18:00N 50°16' W 000°43'1020.6
2017-Jun-18 17:30N 50°06' W 000°38'1020.4
2017-Jun-18 17:00N 49°57' W 000°33'1020.1
2017-Jun-18 16:30N 49°47' W 000°29'1020.1
2017-Jun-18 16:00N 49°37' W 000°24'1019.9
2017-Jun-18 15:30N 49°28' W 000°19'917.0
2017-Jun-18 15:01N 49°20' W 000°14'3 2.7
2017-Jun-18 14:00N 49°17' W 000°15'0 0.0
2017-Jun-18 13:30N 49°17' W 000°15'0 0.0
2017-Jun-18 13:00N 49°17' W 000°15'2 4.8
2017-Jun-18 12:31N 49°20' W 000°14'816.3
2017-Jun-18 12:00N 49°28' W 000°18'918.8
2017-Jun-18 11:30N 49°37' W 000°22'918.6
2017-Jun-18 11:00N 49°45' W 000°26'918.6
2017-Jun-18 10:30N 49°54' W 000°31'1019.0
2017-Jun-18 10:00N 50°03' W 000°35'1019.7
2017-Jun-18 09:30N 50°13' W 000°41'1020.7
2017-Jun-18 09:00N 50°22' W 000°47'1020.8
2017-Jun-18 08:30N 50°32' W 000°52'1020.1
2017-Jun-18 08:01N 50°41' W 000°60'816.2
2017-Jun-18 07:30N 50°48' W 001°07'1 2.6
2017-Jun-18 07:00N 50°49' W 001°06'0 0.0
2017-Jun-18 06:30N 50°49' W 001°06'0 0.0
2017-Jun-18 06:00N 50°49' W 001°06'0 0.2
2017-Jun-18 05:30N 50°49' W 001°06'4 7.1
2017-Jun-18 05:00N 50°45' W 001°05'917.2
2017-Jun-18 04:30N 50°38' W 000°58'611.5
2017-Jun-18 04:00N 50°32' W 000°55'611.5
2017-Jun-18 03:30N 50°27' W 000°51'611.2
2017-Jun-18 03:00N 50°22' W 000°47'612.0
2017-Jun-18 02:30N 50°16' W 000°44'611.5
2017-Jun-18 02:00N 50°11' W 000°41'611.6
2017-Jun-18 01:30N 50°06' W 000°38'611.1
2017-Jun-18 01:00N 50°00' W 000°35'611.7
2017-Jun-18 00:30N 49°55' W 000°32'611.6
2017-Jun-18 00:00N 49°49' W 000°29'611.9
2017-Jun-17 23:30N 49°44' W 000°26'611.8
2017-Jun-17 23:00N 49°38' W 000°23'611.8
2017-Jun-17 22:30N 49°33' W 000°20'611.1
2017-Jun-17 22:00N 49°27' W 000°18'611.4
2017-Jun-17 21:30N 49°22' W 000°15'5 9.2
2017-Jun-17 21:01N 49°17' W 000°15'0 0.1
2017-Jun-17 20:30N 49°17' W 000°15'0 0.0
2017-Jun-17 20:00N 49°17' W 000°15'0 0.0
2017-Jun-17 19:30N 49°17' W 000°15'2 4.9
2017-Jun-17 19:01N 49°20' W 000°14'816.9
2017-Jun-17 18:31N 49°28' W 000°18'1019.2
2017-Jun-17 18:01N 49°37' W 000°23'918.7
2017-Jun-17 17:31N 49°46' W 000°27'918.9
2017-Jun-17 17:01N 49°55' W 000°31'1019.0
2017-Jun-17 16:30N 50°04' W 000°35'918.9
2017-Jun-17 16:01N 50°13' W 000°41'1019.3
2017-Jun-17 15:30N 50°21' W 000°48'1020.5
2017-Jun-17 15:01N 50°31' W 000°54'1817.9
2017-Jun-17 14:00N 50°47' W 001°06'2 3.5
2017-Jun-17 13:31N 50°49' W 001°06'0 0.0
2017-Jun-17 13:00N 50°49' W 001°06'0 0.0
2017-Jun-17 12:30N 50°49' W 001°06'1 1.5
2017-Jun-17 12:01N 50°48' W 001°07'510.2
2017-Jun-17 11:30N 50°44' W 001°03'917.4
2017-Jun-17 11:01N 50°36' W 000°57'1020.6
2017-Jun-17 10:31N 50°26' W 000°51'1020.8
2017-Jun-17 10:01N 50°17' W 000°46'1020.8
2017-Jun-17 09:31N 50°07' W 000°40'1121.1
2017-Jun-17 09:01N 49°57' W 000°35'1121.1
2017-Jun-17 08:31N 49°47' W 000°29'1121.1
2017-Jun-17 08:01N 49°37' W 000°23'1020.9
2017-Jun-17 07:31N 49°27' W 000°18'917.5
2017-Jun-17 07:00N 49°19' W 000°15'1 2.8
2017-Jun-17 06:30N 49°17' W 000°15'0 0.0
2017-Jun-17 06:00N 49°17' W 000°15'0 0.0
2017-Jun-17 05:30N 49°17' W 000°15'0 0.0
2017-Jun-17 05:00N 49°17' W 000°15'0 0.2
2017-Jun-17 04:30N 49°17' W 000°15'510.6
2017-Jun-17 04:00N 49°23' W 000°15'815.8
2017-Jun-17 03:30N 49°30' W 000°20'815.4
2017-Jun-17 03:00N 49°37' W 000°23'815.6
2017-Jun-17 02:30N 49°45' W 000°27'815.6
2017-Jun-17 02:00N 49°52' W 000°30'815.8
2017-Jun-17 01:30N 49°60' W 000°34'815.8
2017-Jun-17 01:00N 50°07' W 000°39'816.1
2017-Jun-17 00:31N 50°15' W 000°43'918.8
2017-Jun-17 00:00N 50°23' W 000°48'918.9
2017-Jun-16 23:30N 50°32' W 000°54'918.4
2017-Jun-16 23:00N 50°41' W 000°58'713.7
2017-Jun-16 22:30N 50°46' W 001°05'3 5.5
2017-Jun-16 22:00N 50°49' W 001°06'0 0.0
2017-Jun-16 21:30N 50°49' W 001°06'0 0.0
2017-Jun-16 21:00N 50°49' W 001°06'0 0.0
2017-Jun-16 20:30N 50°49' W 001°06'1 1.7
2017-Jun-16 20:00N 50°48' W 001°07'612.6
2017-Jun-16 19:31N 50°43' W 001°01'815.9
2017-Jun-16 19:01N 50°36' W 000°56'1019.5
2017-Jun-16 18:31N 50°27' W 000°51'1020.1
2017-Jun-16 18:00N 50°17' W 000°45'1021.0
2017-Jun-16 17:31N 50°08' W 000°38'1020.9
2017-Jun-16 17:00N 49°58' W 000°32'1020.9
2017-Jun-16 16:31N 49°48' W 000°26'1020.8
2017-Jun-16 16:01N 49°39' W 000°20'1020.1
2017-Jun-16 15:31N 49°29' W 000°16'1019.1
2017-Jun-16 15:00N 49°20' W 000°14'2 2.2
2017-Jun-16 14:00N 49°17' W 000°15'0 0.0
2017-Jun-16 13:30N 49°17' W 000°15'0 0.0
2017-Jun-16 13:00N 49°17' W 000°15'2 4.3
2017-Jun-16 12:30N 49°19' W 000°14'816.3
2017-Jun-16 12:00N 49°27' W 000°18'1019.1
2017-Jun-16 11:31N 49°36' W 000°24'1019.0
2017-Jun-16 11:00N 49°45' W 000°30'1019.1
2017-Jun-16 10:31N 49°54' W 000°36'1120.9
2017-Jun-16 09:59N 50°04' W 000°42'1020.6
2017-Jun-16 09:30N 50°13' W 000°47'1120.6
2017-Jun-16 08:59N 50°24' W 000°51'1020.4
2017-Jun-16 08:30N 50°33' W 000°55'1019.7
2017-Jun-16 08:00N 50°42' W 000°59'815.1
2017-Jun-16 07:30N 50°48' W 001°07'1 1.8
2017-Jun-16 07:00N 50°49' W 001°06'0 0.0
2017-Jun-16 06:30N 50°49' W 001°06'0 0.0
2017-Jun-16 06:01N 50°49' W 001°06'0 0.2
2017-Jun-16 05:30N 50°49' W 001°06'4 7.1
2017-Jun-16 05:00N 50°45' W 001°05'917.6
2017-Jun-16 04:30N 50°38' W 000°58'815.8
2017-Jun-16 04:00N 50°30' W 000°53'815.2
2017-Jun-16 03:29N 50°23' W 000°49'715.2
2017-Jun-16 03:00N 50°16' W 000°44'815.1
2017-Jun-16 02:30N 50°09' W 000°40'815.1
2017-Jun-16 02:00N 50°02' W 000°36'714.9
2017-Jun-16 01:30N 49°55' W 000°31'510.6
2017-Jun-16 01:00N 49°50' W 000°28'510.4
2017-Jun-16 00:30N 49°45' W 000°26'510.3
2017-Jun-16 00:00N 49°41' W 000°23'510.2
2017-Jun-15 23:30N 49°36' W 000°21'510.4
2017-Jun-15 23:00N 49°31' W 000°18'510.1
2017-Jun-15 22:30N 49°26' W 000°16'510.1
2017-Jun-15 22:00N 49°21' W 000°15'4 7.2
2017-Jun-15 21:30N 49°17' W 000°15'0 0.0
2017-Jun-15 21:00N 49°17' W 000°15'0 0.0
2017-Jun-15 20:30N 49°17' W 000°15'0 0.0
2017-Jun-15 20:00N 49°17' W 000°15'0 0.0
2017-Jun-15 19:30N 49°17' W 000°15'2 4.7
2017-Jun-15 19:00N 49°20' W 000°14'917.1
2017-Jun-15 18:30N 49°28' W 000°18'1020.0
2017-Jun-15 18:00N 49°37' W 000°23'1019.7
2017-Jun-15 17:31N 49°47' W 000°28'1019.7
2017-Jun-15 17:00N 49°56' W 000°33'1019.8
2017-Jun-15 16:31N 50°05' W 000°38'1019.9
2017-Jun-15 16:01N 50°15' W 000°44'1020.2
2017-Jun-15 15:30N 50°24' W 000°50'1020.1
2017-Jun-15 15:00N 50°33' W 000°56'1019.1
2017-Jun-15 14:31N 50°42' W 001°01'7 7.2
2017-Jun-15 13:31N 50°49' W 001°06'0 0.0
2017-Jun-15 13:00N 50°49' W 001°06'0 0.0
2017-Jun-15 12:31N 50°49' W 001°06'0 0.8
2017-Jun-15 12:00N 50°49' W 001°06'612.1
2017-Jun-15 11:31N 50°43' W 001°02'918.9
2017-Jun-15 11:01N 50°34' W 000°57'1019.8
2017-Jun-15 10:31N 50°25' W 000°53'1020.2
2017-Jun-15 10:00N 50°15' W 000°49'1019.8
2017-Jun-15 09:31N 50°06' W 000°42'1020.2
2017-Jun-15 09:01N 49°57' W 000°37'1020.6
2017-Jun-15 08:30N 49°47' W 000°32'1020.7
2017-Jun-15 08:00N 49°37' W 000°27'1020.6
2017-Jun-15 07:31N 49°28' W 000°19'918.4
2017-Jun-15 07:00N 49°19' W 000°15'2 3.7
2017-Jun-15 06:30N 49°17' W 000°15'0 0.0
2017-Jun-15 06:00N 49°17' W 000°15'0 0.0
2017-Jun-15 05:30N 49°17' W 000°15'0 0.0
2017-Jun-15 05:00N 49°17' W 000°15'0 0.0
2017-Jun-15 04:30N 49°17' W 000°15'3 6.4
2017-Jun-15 04:00N 49°21' W 000°14'611.6
2017-Jun-15 03:30N 49°26' W 000°17'611.9
2017-Jun-15 03:00N 49°32' W 000°19'611.6
2017-Jun-15 02:30N 49°37' W 000°22'612.4
2017-Jun-15 02:00N 49°43' W 000°25'815.6
2017-Jun-15 01:31N 49°51' W 000°28'815.6
2017-Jun-15 01:00N 49°58' W 000°32'815.7
2017-Jun-15 00:30N 50°05' W 000°37'815.7
2017-Jun-15 00:00N 50°13' W 000°41'815.9
2017-Jun-14 23:30N 50°20' W 000°46'815.8
2017-Jun-14 23:00N 50°27' W 000°51'816.0
2017-Jun-14 22:30N 50°35' W 000°55'715.1
2017-Jun-14 22:01N 50°42' W 000°58'714.4
2017-Jun-14 21:31N 50°47' W 001°06'2 3.1
2017-Jun-14 21:00N 50°49' W 001°06'0 0.0
2017-Jun-14 20:30N 50°49' W 001°06'0 0.0
2017-Jun-14 20:00N 50°49' W 001°06'0 0.0
2017-Jun-14 19:30N 50°49' W 001°06'0 0.0
2017-Jun-14 19:00N 50°49' W 001°06'0 0.0
2017-Jun-14 18:30N 50°49' W 001°06'0 0.2
2017-Jun-14 18:00N 50°49' W 001°06'4 8.7
2017-Jun-14 17:31N 50°44' W 001°04'917.5
2017-Jun-14 17:01N 50°37' W 000°57'816.9
2017-Jun-14 16:30N 50°29' W 000°52'816.5
2017-Jun-14 16:01N 50°21' W 000°48'816.8
2017-Jun-14 15:31N 50°13' W 000°43'917.3
2017-Jun-14 15:00N 50°05' W 000°38'1918.7
2017-Jun-14 14:01N 49°48' W 000°28'918.2
2017-Jun-14 13:31N 49°39' W 000°23'  

Dump ship's entire track history